sensor_id;sensor_type;location;lat;lon;timestamp;temperature;humidity
25058;DHT22;13057;50.978;11.034;2024-02-21T00:00:47;9.20;99.90
25058;DHT22;13057;50.978;11.034;2024-02-21T00:03:14;9.20;99.90
25058;DHT22;13057;50.978;11.034;2024-02-21T00:05:40;9.20;99.90
25058;DHT22;13057;50.978;11.034;2024-02-21T00:08:06;9.20;99.90
25058;DHT22;13057;50.978;11.034;2024-02-21T00:10:32;9.20;99.90
25058;DHT22;13057;50.978;11.034;2024-02-21T00:12:58;9.20;99.90
25058;DHT22;13057;50.978;11.034;2024-02-21T00:15:25;9.20;99.90
25058;DHT22;13057;50.978;11.034;2024-02-21T00:17:51;9.20;99.90
25058;DHT22;13057;50.978;11.034;2024-02-21T00:20:17;9.20;99.90
25058;DHT22;13057;50.978;11.034;2024-02-21T00:22:44;9.30;99.90
25058;DHT22;13057;50.978;11.034;2024-02-21T00:25:10;9.20;99.90
25058;DHT22;13057;50.978;11.034;2024-02-21T00:27:36;9.30;99.90
25058;DHT22;13057;50.978;11.034;2024-02-21T00:30:02;9.30;99.90
25058;DHT22;13057;50.978;11.034;2024-02-21T00:32:28;9.20;99.90
25058;DHT22;13057;50.978;11.034;2024-02-21T00:34:54;9.30;99.90
25058;DHT22;13057;50.978;11.034;2024-02-21T00:37:20;9.20;99.90
25058;DHT22;13057;50.978;11.034;2024-02-21T00:39:46;9.30;99.90
25058;DHT22;13057;50.978;11.034;2024-02-21T00:42:12;9.20;99.90
25058;DHT22;13057;50.978;11.034;2024-02-21T00:44:37;9.20;99.90
25058;DHT22;13057;50.978;11.034;2024-02-21T00:47:03;9.30;99.90
25058;DHT22;13057;50.978;11.034;2024-02-21T00:49:29;9.30;99.90
25058;DHT22;13057;50.978;11.034;2024-02-21T00:51:55;9.30;99.90
25058;DHT22;13057;50.978;11.034;2024-02-21T00:54:21;9.20;99.90
25058;DHT22;13057;50.978;11.034;2024-02-21T00:56:48;9.20;99.90
25058;DHT22;13057;50.978;11.034;2024-02-21T00:59:14;9.30;99.90
25058;DHT22;13057;50.978;11.034;2024-02-21T01:01:40;9.30;99.90
25058;DHT22;13057;50.978;11.034;2024-02-21T01:04:09;9.20;99.90
25058;DHT22;13057;50.978;11.034;2024-02-21T01:06:35;9.20;99.90
25058;DHT22;13057;50.978;11.034;2024-02-21T01:09:01;9.20;99.90
25058;DHT22;13057;50.978;11.034;2024-02-21T01:11:27;9.20;99.90
25058;DHT22;13057;50.978;11.034;2024-02-21T01:13:53;9.20;99.90
25058;DHT22;13057;50.978;11.034;2024-02-21T01:16:19;9.20;99.90
25058;DHT22;13057;50.978;11.034;2024-02-21T01:18:45;9.20;99.90
25058;DHT22;13057;50.978;11.034;2024-02-21T01:21:10;9.20;99.90
25058;DHT22;13057;50.978;11.034;2024-02-21T01:23:36;9.30;99.90
25058;DHT22;13057;50.978;11.034;2024-02-21T01:26:03;9.30;99.90
25058;DHT22;13057;50.978;11.034;2024-02-21T01:28:29;9.20;99.90
25058;DHT22;13057;50.978;11.034;2024-02-21T01:30:57;9.20;99.90
25058;DHT22;13057;50.978;11.034;2024-02-21T01:33:22;9.20;99.90
25058;DHT22;13057;50.978;11.034;2024-02-21T01:35:49;9.30;99.90
25058;DHT22;13057;50.978;11.034;2024-02-21T01:38:15;9.20;99.90
25058;DHT22;13057;50.978;11.034;2024-02-21T01:40:41;9.20;99.90
25058;DHT22;13057;50.978;11.034;2024-02-21T01:43:18;9.20;99.90
25058;DHT22;13057;50.978;11.034;2024-02-21T01:45:49;9.20;99.90
25058;DHT22;13057;50.978;11.034;2024-02-21T01:48:17;9.20;99.90
25058;DHT22;13057;50.978;11.034;2024-02-21T01:50:46;9.20;99.90
25058;DHT22;13057;50.978;11.034;2024-02-21T01:53:14;9.20;99.90
25058;DHT22;13057;50.978;11.034;2024-02-21T01:55:46;9.20;99.90
25058;DHT22;13057;50.978;11.034;2024-02-21T01:58:14;9.20;99.90
25058;DHT22;13057;50.978;11.034;2024-02-21T02:00:44;9.20;99.90
25058;DHT22;13057;50.978;11.034;2024-02-21T02:03:11;9.10;99.90
25058;DHT22;13057;50.978;11.034;2024-02-21T02:05:46;9.10;99.90
25058;DHT22;13057;50.978;11.034;2024-02-21T02:08:14;9.20;99.90
25058;DHT22;13057;50.978;11.034;2024-02-21T02:10:40;9.20;99.90
25058;DHT22;13057;50.978;11.034;2024-02-21T02:13:06;9.10;99.90
25058;DHT22;13057;50.978;11.034;2024-02-21T02:15:40;9.20;99.90
25058;DHT22;13057;50.978;11.034;2024-02-21T02:18:07;9.10;99.90
25058;DHT22;13057;50.978;11.034;2024-02-21T02:20:33;9.10;99.90
25058;DHT22;13057;50.978;11.034;2024-02-21T02:22:59;9.10;99.90
25058;DHT22;13057;50.978;11.034;2024-02-21T02:26:01;9.20;99.90
25058;DHT22;13057;50.978;11.034;2024-02-21T02:28:27;9.20;99.90
25058;DHT22;13057;50.978;11.034;2024-02-21T02:30:53;9.20;99.90
25058;DHT22;13057;50.978;11.034;2024-02-21T02:33:19;9.10;99.90
25058;DHT22;13057;50.978;11.034;2024-02-21T02:35:45;9.10;99.90
25058;DHT22;13057;50.978;11.034;2024-02-21T02:38:11;9.10;99.90
25058;DHT22;13057;50.978;11.034;2024-02-21T02:40:39;9.10;99.90
25058;DHT22;13057;50.978;11.034;2024-02-21T02:43:06;9.10;99.90
25058;DHT22;13057;50.978;11.034;2024-02-21T02:45:32;9.10;99.90
25058;DHT22;13057;50.978;11.034;2024-02-21T02:47:58;9.10;99.90
25058;DHT22;13057;50.978;11.034;2024-02-21T02:50:25;9.10;99.90
25058;DHT22;13057;50.978;11.034;2024-02-21T02:52:51;9.10;99.90
25058;DHT22;13057;50.978;11.034;2024-02-21T02:55:17;9.10;99.90
25058;DHT22;13057;50.978;11.034;2024-02-21T02:57:43;9.10;99.90
25058;DHT22;13057;50.978;11.034;2024-02-21T03:00:11;9.10;99.90
25058;DHT22;13057;50.978;11.034;2024-02-21T03:02:38;9.00;99.90
25058;DHT22;13057;50.978;11.034;2024-02-21T03:05:13;9.10;99.90
25058;DHT22;13057;50.978;11.034;2024-02-21T03:07:41;9.10;99.90
25058;DHT22;13057;50.978;11.034;2024-02-21T03:10:07;9.00;99.90
25058;DHT22;13057;50.978;11.034;2024-02-21T03:12:33;9.10;99.90
25058;DHT22;13057;50.978;11.034;2024-02-21T03:14:58;9.10;99.90
25058;DHT22;13057;50.978;11.034;2024-02-21T03:17:25;9.10;99.90
25058;DHT22;13057;50.978;11.034;2024-02-21T03:19:53;9.10;99.90
25058;DHT22;13057;50.978;11.034;2024-02-21T03:22:21;9.10;99.90
25058;DHT22;13057;50.978;11.034;2024-02-21T03:24:47;9.10;99.90
25058;DHT22;13057;50.978;11.034;2024-02-21T03:27:13;9.10;99.90
25058;DHT22;13057;50.978;11.034;2024-02-21T03:29:39;9.10;99.90
25058;DHT22;13057;50.978;11.034;2024-02-21T03:32:04;9.10;99.90
25058;DHT22;13057;50.978;11.034;2024-02-21T03:34:30;9.10;99.90
25058;DHT22;13057;50.978;11.034;2024-02-21T03:36:56;9.10;99.90
25058;DHT22;13057;50.978;11.034;2024-02-21T03:39:22;9.10;99.90
25058;DHT22;13057;50.978;11.034;2024-02-21T03:41:48;9.10;99.90
25058;DHT22;13057;50.978;11.034;2024-02-21T03:44:14;9.10;99.90
25058;DHT22;13057;50.978;11.034;2024-02-21T03:46:41;9.10;99.90
25058;DHT22;13057;50.978;11.034;2024-02-21T03:49:07;9.10;99.90
25058;DHT22;13057;50.978;11.034;2024-02-21T03:51:32;9.10;99.90
25058;DHT22;13057;50.978;11.034;2024-02-21T03:53:58;9.10;99.90
25058;DHT22;13057;50.978;11.034;2024-02-21T03:56:24;9.10;99.90
25058;DHT22;13057;50.978;11.034;2024-02-21T03:58:53;9.10;99.90
25058;DHT22;13057;50.978;11.034;2024-02-21T04:01:19;9.10;99.90
25058;DHT22;13057;50.978;11.034;2024-02-21T04:03:44;9.10;99.90
25058;DHT22;13057;50.978;11.034;2024-02-21T04:06:11;9.10;99.90
25058;DHT22;13057;50.978;11.034;2024-02-21T04:08:36;9.10;99.90
25058;DHT22;13057;50.978;11.034;2024-02-21T04:11:02;9.10;99.90
25058;DHT22;13057;50.978;11.034;2024-02-21T04:13:28;9.10;99.90
25058;DHT22;13057;50.978;11.034;2024-02-21T04:15:54;9.10;99.90
25058;DHT22;13057;50.978;11.034;2024-02-21T04:18:20;9.10;99.90
25058;DHT22;13057;50.978;11.034;2024-02-21T04:21:01;9.10;99.90
25058;DHT22;13057;50.978;11.034;2024-02-21T04:23:29;9.00;99.90
25058;DHT22;13057;50.978;11.034;2024-02-21T04:25:55;9.10;99.90
25058;DHT22;13057;50.978;11.034;2024-02-21T04:28:21;9.10;99.90
25058;DHT22;13057;50.978;11.034;2024-02-21T04:30:47;9.10;99.90
25058;DHT22;13057;50.978;11.034;2024-02-21T04:33:13;9.10;99.90
25058;DHT22;13057;50.978;11.034;2024-02-21T04:35:38;9.00;99.90
25058;DHT22;13057;50.978;11.034;2024-02-21T04:38:05;9.10;99.90
25058;DHT22;13057;50.978;11.034;2024-02-21T04:40:30;9.00;99.90
25058;DHT22;13057;50.978;11.034;2024-02-21T04:42:57;9.00;99.90
25058;DHT22;13057;50.978;11.034;2024-02-21T04:45:23;9.00;99.90
25058;DHT22;13057;50.978;11.034;2024-02-21T04:47:49;9.00;99.90
25058;DHT22;13057;50.978;11.034;2024-02-21T04:50:15;9.10;99.90
25058;DHT22;13057;50.978;11.034;2024-02-21T04:52:41;9.00;99.90
25058;DHT22;13057;50.978;11.034;2024-02-21T04:55:07;9.00;99.90
25058;DHT22;13057;50.978;11.034;2024-02-21T04:57:33;9.00;99.90
25058;DHT22;13057;50.978;11.034;2024-02-21T04:59:59;9.00;99.90
25058;DHT22;13057;50.978;11.034;2024-02-21T05:02:25;9.10;99.90
25058;DHT22;13057;50.978;11.034;2024-02-21T05:04:52;9.00;99.90
25058;DHT22;13057;50.978;11.034;2024-02-21T05:07:19;9.00;99.90
25058;DHT22;13057;50.978;11.034;2024-02-21T05:09:46;9.10;99.90
25058;DHT22;13057;50.978;11.034;2024-02-21T05:12:12;9.00;99.90
25058;DHT22;13057;50.978;11.034;2024-02-21T05:14:37;9.00;99.90
25058;DHT22;13057;50.978;11.034;2024-02-21T05:17:04;9.00;99.90
25058;DHT22;13057;50.978;11.034;2024-02-21T05:19:30;9.10;99.90
25058;DHT22;13057;50.978;11.034;2024-02-21T05:21:56;9.10;99.90
25058;DHT22;13057;50.978;11.034;2024-02-21T05:24:22;9.10;99.90
25058;DHT22;13057;50.978;11.034;2024-02-21T05:26:47;9.10;99.90
25058;DHT22;13057;50.978;11.034;2024-02-21T05:29:13;9.10;99.90
25058;DHT22;13057;50.978;11.034;2024-02-21T05:31:55;9.10;99.90
25058;DHT22;13057;50.978;11.034;2024-02-21T05:34:22;9.10;99.90
25058;DHT22;13057;50.978;11.034;2024-02-21T05:36:48;9.10;99.90
25058;DHT22;13057;50.978;11.034;2024-02-21T05:39:15;9.10;99.90
25058;DHT22;13057;50.978;11.034;2024-02-21T05:41:42;9.10;99.90
25058;DHT22;13057;50.978;11.034;2024-02-21T05:44:08;9.10;99.90
25058;DHT22;13057;50.978;11.034;2024-02-21T05:46:34;9.10;99.90
25058;DHT22;13057;50.978;11.034;2024-02-21T05:49:00;9.20;99.90
25058;DHT22;13057;50.978;11.034;2024-02-21T05:51:26;9.20;99.90
25058;DHT22;13057;50.978;11.034;2024-02-21T05:53:52;9.20;99.90
25058;DHT22;13057;50.978;11.034;2024-02-21T05:56:18;9.20;99.90
25058;DHT22;13057;50.978;11.034;2024-02-21T05:58:45;9.30;99.90
25058;DHT22;13057;50.978;11.034;2024-02-21T06:01:11;9.30;99.90
25058;DHT22;13057;50.978;11.034;2024-02-21T06:03:37;9.30;99.90
25058;DHT22;13057;50.978;11.034;2024-02-21T06:06:03;9.30;99.90
25058;DHT22;13057;50.978;11.034;2024-02-21T06:08:30;9.30;99.90
25058;DHT22;13057;50.978;11.034;2024-02-21T06:10:56;9.30;99.90
25058;DHT22;13057;50.978;11.034;2024-02-21T06:13:23;9.40;99.90
25058;DHT22;13057;50.978;11.034;2024-02-21T06:15:50;9.40;99.90
25058;DHT22;13057;50.978;11.034;2024-02-21T06:18:17;9.30;99.90
25058;DHT22;13057;50.978;11.034;2024-02-21T06:20:43;9.40;99.90
25058;DHT22;13057;50.978;11.034;2024-02-21T06:23:09;9.40;99.90
25058;DHT22;13057;50.978;11.034;2024-02-21T06:25:35;9.40;99.90
25058;DHT22;13057;50.978;11.034;2024-02-21T06:28:01;9.40;99.90
25058;DHT22;13057;50.978;11.034;2024-02-21T06:30:27;9.40;99.90
25058;DHT22;13057;50.978;11.034;2024-02-21T06:32:53;9.40;99.90
25058;DHT22;13057;50.978;11.034;2024-02-21T06:35:22;9.40;99.90
25058;DHT22;13057;50.978;11.034;2024-02-21T06:37:50;9.40;99.90
25058;DHT22;13057;50.978;11.034;2024-02-21T06:40:20;9.40;99.90
25058;DHT22;13057;50.978;11.034;2024-02-21T06:42:46;9.40;99.90
25058;DHT22;13057;50.978;11.034;2024-02-21T06:45:12;9.40;99.90
25058;DHT22;13057;50.978;11.034;2024-02-21T06:47:38;9.40;99.90
25058;DHT22;13057;50.978;11.034;2024-02-21T06:50:04;9.40;99.90
25058;DHT22;13057;50.978;11.034;2024-02-21T06:52:30;9.40;99.90
25058;DHT22;13057;50.978;11.034;2024-02-21T06:54:56;9.50;99.90
25058;DHT22;13057;50.978;11.034;2024-02-21T06:57:22;9.40;99.90
25058;DHT22;13057;50.978;11.034;2024-02-21T06:59:48;9.40;99.90
25058;DHT22;13057;50.978;11.034;2024-02-21T07:02:15;9.40;99.90
25058;DHT22;13057;50.978;11.034;2024-02-21T07:04:40;9.40;99.90
25058;DHT22;13057;50.978;11.034;2024-02-21T07:07:06;9.40;99.90
25058;DHT22;13057;50.978;11.034;2024-02-21T07:09:32;9.40;99.90
25058;DHT22;13057;50.978;11.034;2024-02-21T07:11:59;9.30;99.90
25058;DHT22;13057;50.978;11.034;2024-02-21T07:14:25;9.30;99.90
25058;DHT22;13057;50.978;11.034;2024-02-21T07:16:52;9.30;99.90
25058;DHT22;13057;50.978;11.034;2024-02-21T07:19:17;9.30;99.90
25058;DHT22;13057;50.978;11.034;2024-02-21T07:21:43;9.30;99.90
25058;DHT22;13057;50.978;11.034;2024-02-21T07:24:09;9.40;99.90
25058;DHT22;13057;50.978;11.034;2024-02-21T07:26:35;9.40;99.90
25058;DHT22;13057;50.978;11.034;2024-02-21T07:29:01;9.40;99.90
25058;DHT22;13057;50.978;11.034;2024-02-21T07:31:27;9.40;99.90
25058;DHT22;13057;50.978;11.034;2024-02-21T07:33:52;9.40;99.90
25058;DHT22;13057;50.978;11.034;2024-02-21T07:36:29;9.40;99.90
25058;DHT22;13057;50.978;11.034;2024-02-21T07:38:56;9.50;99.90
25058;DHT22;13057;50.978;11.034;2024-02-21T07:41:22;9.50;99.90
25058;DHT22;13057;50.978;11.034;2024-02-21T07:43:48;9.50;99.90
25058;DHT22;13057;50.978;11.034;2024-02-21T07:46:14;9.50;99.90
25058;DHT22;13057;50.978;11.034;2024-02-21T07:48:40;9.50;99.90
25058;DHT22;13057;50.978;11.034;2024-02-21T07:51:06;9.50;99.90
25058;DHT22;13057;50.978;11.034;2024-02-21T07:53:32;9.50;99.90
25058;DHT22;13057;50.978;11.034;2024-02-21T07:55:58;9.50;99.90
25058;DHT22;13057;50.978;11.034;2024-02-21T07:58:23;9.50;99.90
25058;DHT22;13057;50.978;11.034;2024-02-21T08:00:50;9.60;99.90
25058;DHT22;13057;50.978;11.034;2024-02-21T08:03:15;9.70;99.90
25058;DHT22;13057;50.978;11.034;2024-02-21T08:05:44;9.70;99.90
25058;DHT22;13057;50.978;11.034;2024-02-21T08:08:09;9.70;99.90
25058;DHT22;13057;50.978;11.034;2024-02-21T08:10:37;9.80;99.90
25058;DHT22;13057;50.978;11.034;2024-02-21T08:13:04;9.80;99.90
25058;DHT22;13057;50.978;11.034;2024-02-21T08:15:30;9.80;99.90
25058;DHT22;13057;50.978;11.034;2024-02-21T08:17:56;9.80;99.90
25058;DHT22;13057;50.978;11.034;2024-02-21T08:20:25;9.80;99.90
25058;DHT22;13057;50.978;11.034;2024-02-21T08:22:51;9.80;99.90
25058;DHT22;13057;50.978;11.034;2024-02-21T08:25:18;9.80;99.90
25058;DHT22;13057;50.978;11.034;2024-02-21T08:27:43;9.80;99.90
25058;DHT22;13057;50.978;11.034;2024-02-21T08:30:11;9.80;99.90
25058;DHT22;13057;50.978;11.034;2024-02-21T08:32:37;9.80;99.90
25058;DHT22;13057;50.978;11.034;2024-02-21T08:35:03;9.80;99.90
25058;DHT22;13057;50.978;11.034;2024-02-21T08:37:30;9.80;99.90
25058;DHT22;13057;50.978;11.034;2024-02-21T08:39:56;9.80;99.90
25058;DHT22;13057;50.978;11.034;2024-02-21T08:42:22;9.80;99.90
25058;DHT22;13057;50.978;11.034;2024-02-21T08:44:48;9.80;99.90
25058;DHT22;13057;50.978;11.034;2024-02-21T08:47:15;9.80;99.90
25058;DHT22;13057;50.978;11.034;2024-02-21T08:49:40;9.80;99.90
25058;DHT22;13057;50.978;11.034;2024-02-21T08:52:06;9.80;99.90
25058;DHT22;13057;50.978;11.034;2024-02-21T08:54:33;9.90;99.90
25058;DHT22;13057;50.978;11.034;2024-02-21T08:57:00;9.80;99.90
25058;DHT22;13057;50.978;11.034;2024-02-21T08:59:26;9.80;99.90
25058;DHT22;13057;50.978;11.034;2024-02-21T09:01:52;9.80;99.90
25058;DHT22;13057;50.978;11.034;2024-02-21T09:04:19;9.80;99.90
25058;DHT22;13057;50.978;11.034;2024-02-21T09:06:45;9.80;99.90
25058;DHT22;13057;50.978;11.034;2024-02-21T09:09:12;9.80;99.90
25058;DHT22;13057;50.978;11.034;2024-02-21T09:11:38;9.90;99.90
25058;DHT22;13057;50.978;11.034;2024-02-21T09:14:04;9.80;99.90
25058;DHT22;13057;50.978;11.034;2024-02-21T09:16:33;9.90;99.90
25058;DHT22;13057;50.978;11.034;2024-02-21T09:18:59;9.90;99.90
25058;DHT22;13057;50.978;11.034;2024-02-21T09:21:25;9.90;99.90
25058;DHT22;13057;50.978;11.034;2024-02-21T09:23:51;9.90;99.90
25058;DHT22;13057;50.978;11.034;2024-02-21T09:26:17;9.90;99.90
25058;DHT22;13057;50.978;11.034;2024-02-21T09:28:43;9.90;99.90
25058;DHT22;13057;50.978;11.034;2024-02-21T09:31:11;10.00;99.90
25058;DHT22;13057;50.978;11.034;2024-02-21T09:33:37;10.00;99.90
25058;DHT22;13057;50.978;11.034;2024-02-21T09:36:03;10.10;99.90
25058;DHT22;13057;50.978;11.034;2024-02-21T09:38:32;10.10;99.90
25058;DHT22;13057;50.978;11.034;2024-02-21T09:41:04;10.10;99.90
25058;DHT22;13057;50.978;11.034;2024-02-21T09:43:33;10.10;99.90
25058;DHT22;13057;50.978;11.034;2024-02-21T09:46:00;10.10;99.90
25058;DHT22;13057;50.978;11.034;2024-02-21T09:51:14;10.00;99.90
25058;DHT22;13057;50.978;11.034;2024-02-21T09:53:42;10.00;99.90
25058;DHT22;13057;50.978;11.034;2024-02-21T09:56:09;10.10;99.90
25058;DHT22;13057;50.978;11.034;2024-02-21T09:58:35;10.10;99.90
25058;DHT22;13057;50.978;11.034;2024-02-21T10:01:01;10.10;99.90
25058;DHT22;13057;50.978;11.034;2024-02-21T10:03:29;10.10;99.90
25058;DHT22;13057;50.978;11.034;2024-02-21T10:05:55;10.10;99.90
25058;DHT22;13057;50.978;11.034;2024-02-21T10:08:21;10.20;99.90
25058;DHT22;13057;50.978;11.034;2024-02-21T10:10:47;10.20;99.90
25058;DHT22;13057;50.978;11.034;2024-02-21T10:13:25;10.30;99.90
25058;DHT22;13057;50.978;11.034;2024-02-21T10:16:03;10.50;99.90
25058;DHT22;13057;50.978;11.034;2024-02-21T10:18:29;10.80;99.90
25058;DHT22;13057;50.978;11.034;2024-02-21T10:21:05;11.00;99.90
25058;DHT22;13057;50.978;11.034;2024-02-21T10:23:51;11.10;99.90
25058;DHT22;13057;50.978;11.034;2024-02-21T10:26:19;11.10;99.90
25058;DHT22;13057;50.978;11.034;2024-02-21T10:28:45;11.10;99.90
25058;DHT22;13057;50.978;11.034;2024-02-21T10:31:22;11.20;99.90
25058;DHT22;13057;50.978;11.034;2024-02-21T10:34:08;11.30;99.90
25058;DHT22;13057;50.978;11.034;2024-02-21T10:37:00;11.30;99.90
25058;DHT22;13057;50.978;11.034;2024-02-21T10:39:31;11.20;99.90
25058;DHT22;13057;50.978;11.034;2024-02-21T10:42:00;11.20;99.90
25058;DHT22;13057;50.978;11.034;2024-02-21T10:44:30;11.10;99.90
25058;DHT22;13057;50.978;11.034;2024-02-21T10:47:00;11.10;99.90
25058;DHT22;13057;50.978;11.034;2024-02-21T10:49:30;11.10;99.90
25058;DHT22;13057;50.978;11.034;2024-02-21T10:52:13;11.20;99.90
25058;DHT22;13057;50.978;11.034;2024-02-21T10:54:45;11.20;99.90
25058;DHT22;13057;50.978;11.034;2024-02-21T10:57:14;11.20;99.90
25058;DHT22;13057;50.978;11.034;2024-02-21T10:59:40;11.30;99.90
25058;DHT22;13057;50.978;11.034;2024-02-21T11:02:06;11.40;99.90
25058;DHT22;13057;50.978;11.034;2024-02-21T11:04:33;11.40;99.90
25058;DHT22;13057;50.978;11.034;2024-02-21T11:07:04;11.50;99.90
25058;DHT22;13057;50.978;11.034;2024-02-21T11:09:31;11.50;99.90
25058;DHT22;13057;50.978;11.034;2024-02-21T11:11:58;11.60;99.90
25058;DHT22;13057;50.978;11.034;2024-02-21T11:14:27;11.70;99.90
25058;DHT22;13057;50.978;11.034;2024-02-21T11:16:53;11.70;99.90
25058;DHT22;13057;50.978;11.034;2024-02-21T11:19:22;11.80;99.90
25058;DHT22;13057;50.978;11.034;2024-02-21T11:21:50;11.80;99.90
25058;DHT22;13057;50.978;11.034;2024-02-21T11:24:29;11.80;99.90
25058;DHT22;13057;50.978;11.034;2024-02-21T11:27:07;11.90;99.90
25058;DHT22;13057;50.978;11.034;2024-02-21T11:29:43;11.90;99.90
25058;DHT22;13057;50.978;11.034;2024-02-21T11:32:10;11.90;99.90
25058;DHT22;13057;50.978;11.034;2024-02-21T11:34:37;11.90;99.90
25058;DHT22;13057;50.978;11.034;2024-02-21T11:37:13;12.00;99.90
25058;DHT22;13057;50.978;11.034;2024-02-21T11:39:42;12.00;99.90
25058;DHT22;13057;50.978;11.034;2024-02-21T11:42:08;11.90;99.90
25058;DHT22;13057;50.978;11.034;2024-02-21T11:44:35;12.00;99.90
25058;DHT22;13057;50.978;11.034;2024-02-21T11:47:04;11.90;99.90
25058;DHT22;13057;50.978;11.034;2024-02-21T11:49:30;11.90;99.90
25058;DHT22;13057;50.978;11.034;2024-02-21T11:51:58;12.00;99.90
25058;DHT22;13057;50.978;11.034;2024-02-21T11:54:24;12.00;99.90
25058;DHT22;13057;50.978;11.034;2024-02-21T11:56:52;12.10;99.90
25058;DHT22;13057;50.978;11.034;2024-02-21T11:59:17;12.00;99.90
25058;DHT22;13057;50.978;11.034;2024-02-21T12:01:43;12.10;99.90
25058;DHT22;13057;50.978;11.034;2024-02-21T12:04:10;12.20;99.90
25058;DHT22;13057;50.978;11.034;2024-02-21T12:06:36;12.10;99.90
25058;DHT22;13057;50.978;11.034;2024-02-21T12:09:04;12.10;99.90
25058;DHT22;13057;50.978;11.034;2024-02-21T12:11:30;12.10;99.90
25058;DHT22;13057;50.978;11.034;2024-02-21T12:14:00;12.20;99.90
25058;DHT22;13057;50.978;11.034;2024-02-21T12:16:28;12.20;99.90
25058;DHT22;13057;50.978;11.034;2024-02-21T12:18:57;12.20;99.90
25058;DHT22;13057;50.978;11.034;2024-02-21T12:21:25;12.30;99.90
25058;DHT22;13057;50.978;11.034;2024-02-21T12:23:51;12.20;99.90
25058;DHT22;13057;50.978;11.034;2024-02-21T12:26:17;12.30;99.90
25058;DHT22;13057;50.978;11.034;2024-02-21T12:28:43;12.30;99.90
25058;DHT22;13057;50.978;11.034;2024-02-21T12:31:10;12.30;99.60
25058;DHT22;13057;50.978;11.034;2024-02-21T12:33:35;12.30;99.40
25058;DHT22;13057;50.978;11.034;2024-02-21T12:36:01;12.30;99.10
25058;DHT22;13057;50.978;11.034;2024-02-21T12:38:30;12.40;98.50
25058;DHT22;13057;50.978;11.034;2024-02-21T12:40:58;12.40;98.10
25058;DHT22;13057;50.978;11.034;2024-02-21T12:43:26;12.40;97.70
25058;DHT22;13057;50.978;11.034;2024-02-21T12:45:53;12.40;97.90
25058;DHT22;13057;50.978;11.034;2024-02-21T12:48:19;12.40;97.40
25058;DHT22;13057;50.978;11.034;2024-02-21T12:50:50;12.40;97.50
25058;DHT22;13057;50.978;11.034;2024-02-21T12:53:17;12.40;97.60
25058;DHT22;13057;50.978;11.034;2024-02-21T12:55:45;12.50;98.00
25058;DHT22;13057;50.978;11.034;2024-02-21T12:58:11;12.40;97.60
25058;DHT22;13057;50.978;11.034;2024-02-21T13:00:39;12.50;97.80
25058;DHT22;13057;50.978;11.034;2024-02-21T13:03:04;12.40;97.80
25058;DHT22;13057;50.978;11.034;2024-02-21T13:05:30;12.40;97.80
25058;DHT22;13057;50.978;11.034;2024-02-21T13:07:58;12.40;97.70
25058;DHT22;13057;50.978;11.034;2024-02-21T13:10:24;12.50;97.50
25058;DHT22;13057;50.978;11.034;2024-02-21T13:12:51;12.50;97.50
25058;DHT22;13057;50.978;11.034;2024-02-21T13:15:17;12.50;97.30
25058;DHT22;13057;50.978;11.034;2024-02-21T13:17:44;12.50;96.90
25058;DHT22;13057;50.978;11.034;2024-02-21T13:20:11;12.60;97.00
25058;DHT22;13057;50.978;11.034;2024-02-21T13:22:39;12.60;97.00
25058;DHT22;13057;50.978;11.034;2024-02-21T13:25:06;12.60;96.80
25058;DHT22;13057;50.978;11.034;2024-02-21T13:27:33;12.60;97.00
25058;DHT22;13057;50.978;11.034;2024-02-21T13:29:59;12.70;96.70
25058;DHT22;13057;50.978;11.034;2024-02-21T13:32:27;12.70;96.80
25058;DHT22;13057;50.978;11.034;2024-02-21T13:34:53;12.70;96.30
25058;DHT22;13057;50.978;11.034;2024-02-21T13:37:19;12.70;95.80
25058;DHT22;13057;50.978;11.034;2024-02-21T13:39:44;12.70;95.70
25058;DHT22;13057;50.978;11.034;2024-02-21T13:42:12;12.70;95.20
25058;DHT22;13057;50.978;11.034;2024-02-21T13:44:39;12.70;96.00
25058;DHT22;13057;50.978;11.034;2024-02-21T13:47:04;12.80;95.50
25058;DHT22;13057;50.978;11.034;2024-02-21T13:49:33;12.80;95.70
25058;DHT22;13057;50.978;11.034;2024-02-21T13:52:00;12.90;95.90
25058;DHT22;13057;50.978;11.034;2024-02-21T13:54:25;12.90;96.20
25058;DHT22;13057;50.978;11.034;2024-02-21T13:56:51;12.90;96.20
25058;DHT22;13057;50.978;11.034;2024-02-21T13:59:17;12.90;95.70
25058;DHT22;13057;50.978;11.034;2024-02-21T14:01:43;12.90;95.50
25058;DHT22;13057;50.978;11.034;2024-02-21T14:04:09;12.90;95.40
25058;DHT22;13057;50.978;11.034;2024-02-21T14:06:35;12.80;95.60
25058;DHT22;13057;50.978;11.034;2024-02-21T14:09:02;12.80;95.00
25058;DHT22;13057;50.978;11.034;2024-02-21T14:11:28;12.80;95.20
25058;DHT22;13057;50.978;11.034;2024-02-21T14:13:56;12.80;95.50
25058;DHT22;13057;50.978;11.034;2024-02-21T14:16:23;12.70;95.60
25058;DHT22;13057;50.978;11.034;2024-02-21T14:18:48;12.80;95.60
25058;DHT22;13057;50.978;11.034;2024-02-21T14:21:16;12.80;95.70
25058;DHT22;13057;50.978;11.034;2024-02-21T14:23:41;12.80;95.50
25058;DHT22;13057;50.978;11.034;2024-02-21T14:26:09;12.90;95.50
25058;DHT22;13057;50.978;11.034;2024-02-21T14:28:37;12.80;95.50
25058;DHT22;13057;50.978;11.034;2024-02-21T14:31:04;12.80;95.30
25058;DHT22;13057;50.978;11.034;2024-02-21T14:33:35;12.80;95.10
25058;DHT22;13057;50.978;11.034;2024-02-21T14:36:01;12.80;95.70
25058;DHT22;13057;50.978;11.034;2024-02-21T14:38:28;12.80;95.50
25058;DHT22;13057;50.978;11.034;2024-02-21T14:40:54;12.70;95.50
25058;DHT22;13057;50.978;11.034;2024-02-21T14:43:20;12.70;95.40
25058;DHT22;13057;50.978;11.034;2024-02-21T14:45:47;12.70;95.80
25058;DHT22;13057;50.978;11.034;2024-02-21T14:48:14;12.70;96.00
25058;DHT22;13057;50.978;11.034;2024-02-21T14:50:40;12.70;96.20
25058;DHT22;13057;50.978;11.034;2024-02-21T14:53:07;12.60;96.50
25058;DHT22;13057;50.978;11.034;2024-02-21T14:55:34;12.60;96.50
25058;DHT22;13057;50.978;11.034;2024-02-21T14:58:00;12.60;96.60
25058;DHT22;13057;50.978;11.034;2024-02-21T15:00:26;12.60;96.70
25058;DHT22;13057;50.978;11.034;2024-02-21T15:02:57;12.60;96.40
25058;DHT22;13057;50.978;11.034;2024-02-21T15:05:26;12.50;96.60
25058;DHT22;13057;50.978;11.034;2024-02-21T15:07:55;12.50;96.50
25058;DHT22;13057;50.978;11.034;2024-02-21T15:10:20;12.50;96.60
25058;DHT22;13057;50.978;11.034;2024-02-21T15:12:47;12.40;96.60
25058;DHT22;13057;50.978;11.034;2024-02-21T15:15:13;12.40;97.00
25058;DHT22;13057;50.978;11.034;2024-02-21T15:17:39;12.40;96.90
25058;DHT22;13057;50.978;11.034;2024-02-21T15:20:07;12.40;96.50
25058;DHT22;13057;50.978;11.034;2024-02-21T15:22:35;12.30;97.50
25058;DHT22;13057;50.978;11.034;2024-02-21T15:25:02;12.30;97.00
25058;DHT22;13057;50.978;11.034;2024-02-21T15:27:30;12.30;97.20